createdAt,value
2018-09-12T00:01:41.434Z,98319.49
2018-09-12T00:04:10.506Z,98316.28
2018-09-12T00:06:39.566Z,98312.73
2018-09-12T00:09:10.739Z,98319.55
2018-09-12T00:11:39.945Z,98316.78
2018-09-12T00:14:10.122Z,98314.84
2018-09-12T00:16:39.460Z,98313.13
2018-09-12T00:19:08.842Z,98309.81
2018-09-12T00:21:38.399Z,98312.50
2018-09-12T00:24:07.542Z,98313.38
2018-09-12T00:26:36.766Z,98320.19
2018-09-12T00:29:05.785Z,98315.00
2018-09-12T00:31:34.958Z,98311.48
2018-09-12T00:34:04.121Z,98313.11
2018-09-12T00:36:33.239Z,98306.34
2018-09-12T00:39:02.459Z,98307.18
2018-09-12T00:41:31.545Z,98304.48
2018-09-12T00:44:01.477Z,98296.88
2018-09-12T00:46:30.690Z,98303.42
2018-09-12T00:48:59.975Z,98299.88
2018-09-12T00:51:29.147Z,98302.89
2018-09-12T00:53:58.232Z,98298.85
2018-09-12T00:56:27.379Z,98292.58
2018-09-12T00:58:56.503Z,98294.48
2018-09-12T01:01:25.613Z,98285.73
2018-09-12T01:03:54.665Z,98290.61
2018-09-12T01:06:23.686Z,98284.03
2018-09-12T01:08:52.848Z,98283.44
2018-09-12T01:11:23.713Z,98281.95
2018-09-12T01:13:54.146Z,98283.50
2018-09-12T01:16:23.238Z,98280.50
2018-09-12T01:18:52.511Z,98282.08
2018-09-12T01:21:21.538Z,98280.42
2018-09-12T01:23:51.492Z,98279.09
2018-09-12T01:26:57.311Z,98288.33
2018-09-12T01:35:50.930Z,98275.28
2018-09-12T01:38:20.929Z,98275.53
2018-09-12T01:40:50.211Z,98271.41
2018-09-12T01:43:19.275Z,98272.19
2018-09-12T01:45:48.506Z,98267.84
2018-09-12T01:48:17.612Z,98254.73
2018-09-12T01:50:53.165Z,98258.26
2018-09-12T01:53:22.257Z,98262.63
2018-09-12T01:55:51.446Z,98260.98
2018-09-12T01:58:20.618Z,98263.15
2018-09-12T02:00:49.792Z,98259.30
2018-09-12T02:03:18.805Z,98256.61
2018-09-12T02:05:47.931Z,98254.50
2018-09-12T02:08:17.273Z,98251.55
2018-09-12T02:10:46.323Z,98252.08
2018-09-12T02:13:15.959Z,98232.47
2018-09-12T02:15:45.114Z,98252.95
2018-09-12T02:18:14.958Z,98250.80
2018-09-12T02:20:44.179Z,98253.80
2018-09-12T02:23:13.487Z,98249.21
2018-09-12T02:25:42.502Z,98245.66
2018-09-12T02:28:31.103Z,98219.43
2018-09-12T02:31:00.814Z,98243.92
2018-09-12T02:33:30.086Z,98238.70
2018-09-12T02:36:04.284Z,98240.27
2018-09-12T02:38:33.434Z,98238.89
2018-09-12T02:41:02.621Z,98236.47
2018-09-12T02:43:32.059Z,98247.23
2018-09-12T02:46:01.497Z,98250.53
2018-09-12T02:48:30.978Z,98250.22
2018-09-12T02:57:52.569Z,98239.20
2018-09-12T03:00:21.655Z,98235.10
2018-09-12T03:02:50.686Z,98234.21
2018-09-12T03:05:19.801Z,98234.44
2018-09-12T03:07:48.914Z,98231.40
2018-09-12T03:10:18.001Z,98229.77
2018-09-12T03:12:47.089Z,98230.45
2018-09-12T03:15:16.843Z,98234.56
2018-09-12T03:17:45.922Z,98232.95
2018-09-12T03:20:15.359Z,98233.45
2018-09-12T03:22:44.365Z,98236.44
2018-09-12T03:25:13.693Z,98243.05
2018-09-12T03:27:42.899Z,98240.35
2018-09-12T03:30:11.975Z,98242.24
2018-09-12T03:32:41.109Z,98244.66
2018-09-12T03:35:10.287Z,98244.64
2018-09-12T03:37:39.424Z,98235.90
2018-09-12T03:40:08.833Z,98235.90
2018-09-12T03:42:37.967Z,98234.00
2018-09-12T03:45:07.535Z,98233.98
2018-09-12T03:47:36.658Z,98228.77
2018-09-12T03:50:05.911Z,98225.48
2018-09-12T03:52:35.005Z,98227.31
2018-09-12T03:55:08.450Z,98225.67
2018-09-12T03:57:37.454Z,98225.43
2018-09-12T04:00:07.409Z,98220.26
2018-09-12T04:02:36.623Z,98226.55
2018-09-12T04:05:06.189Z,98231.69
2018-09-12T04:07:35.312Z,98228.41
2018-09-12T04:10:04.484Z,98231.94
2018-09-12T04:12:33.623Z,98230.05
2018-09-12T04:15:02.787Z,98228.39
2018-09-12T04:17:34.857Z,98226.23
2018-09-12T04:20:03.940Z,98225.34
2018-09-12T04:22:33.561Z,98227.45
2018-09-12T04:25:02.637Z,98227.56
2018-09-12T04:27:31.634Z,98227.66
2018-09-12T04:30:00.639Z,98239.45
2018-09-12T04:32:29.733Z,98238.27
2018-09-12T04:34:58.704Z,98239.89
2018-09-12T04:37:27.679Z,98239.02
2018-09-12T04:39:56.745Z,98240.64
2018-09-12T04:42:25.708Z,98247.41
2018-09-12T04:44:54.717Z,98248.12
2018-09-12T04:47:23.758Z,98247.55
2018-09-12T04:49:52.854Z,98243.03
2018-09-12T04:52:21.832Z,98242.34
2018-09-12T04:54:50.983Z,98246.45
2018-09-12T04:57:20.050Z,98243.74
2018-09-12T04:59:49.186Z,98240.32
2018-09-12T05:02:18.149Z,98251.34
2018-09-12T05:04:47.112Z,98244.79
2018-09-12T05:07:16.684Z,98246.62
2018-09-12T05:09:45.829Z,98247.67
2018-09-12T05:12:15.349Z,98248.66
2018-09-12T05:14:44.284Z,98246.56
2018-09-12T05:17:13.661Z,98251.39
2018-09-12T05:19:42.677Z,98248.24
2018-09-12T05:22:11.742Z,98249.91
2018-09-12T05:24:40.902Z,98259.98
2018-09-12T05:27:09.853Z,98254.95
2018-09-12T05:29:38.991Z,98260.91
2018-09-12T05:43:03.697Z,98262.44
2018-09-12T05:45:32.864Z,98263.28
2018-09-12T05:48:01.855Z,98264.16
2018-09-12T05:50:30.781Z,98256.53
2018-09-12T05:52:59.842Z,98258.19
2018-09-12T05:55:28.845Z,98257.66
2018-09-12T05:57:57.887Z,98256.31
2018-09-12T06:00:27.113Z,98257.97
2018-09-12T06:02:56.222Z,98261.48
2018-09-12T06:05:25.244Z,98260.52
2018-09-12T06:07:54.359Z,98258.72
2018-09-12T06:10:23.393Z,98265.25
2018-09-12T06:12:52.426Z,98258.38
2018-09-12T06:15:21.625Z,98255.60
2018-09-12T06:17:50.708Z,98261.67
2018-09-12T06:20:20.209Z,98257.59
2018-09-12T06:22:49.296Z,98250.54
2018-09-12T06:25:18.266Z,98257.34
2018-09-12T06:27:47.260Z,98257.44
2018-09-12T06:30:17.012Z,98261.38
2018-09-12T06:32:46.042Z,98264.21
2018-09-12T06:35:18.890Z,98265.61
2018-09-12T06:37:47.997Z,98260.92
2018-09-12T06:40:17.473Z,98264.69
2018-09-12T06:42:46.590Z,98258.58
2018-09-12T06:45:16.303Z,98251.31
2018-09-12T06:47:45.402Z,98251.89
2018-09-12T06:50:14.949Z,98251.04
2018-09-12T06:52:43.902Z,98248.73
2018-09-12T06:55:12.942Z,98247.59
2018-09-12T06:57:42.053Z,98249.88
2018-09-12T07:00:11.313Z,98246.92
2018-09-12T07:02:40.295Z,98253.20
2018-09-12T07:05:09.701Z,98244.39
2018-09-12T07:07:38.853Z,98246.44
2018-09-12T07:10:08.454Z,98243.11
2018-09-12T07:12:37.541Z,98240.19
2018-09-12T07:15:06.982Z,98240.98
2018-09-12T07:17:36.035Z,98238.14
2018-09-12T07:20:05.348Z,98237.90
2018-09-12T07:22:34.513Z,98239.81
2018-09-12T07:25:03.922Z,98235.25
2018-09-12T07:27:33.173Z,98237.67
2018-09-12T07:30:02.215Z,98241.82
2018-09-12T07:32:31.594Z,98242.22
2018-09-12T07:35:01.084Z,98245.63
2018-09-12T07:37:30.177Z,98242.65
2018-09-12T07:39:59.155Z,98251.08
2018-09-12T07:42:28.352Z,98251.00
2018-09-12T07:44:57.344Z,98261.22
2018-09-12T07:47:26.346Z,98263.42
2018-09-12T07:49:55.948Z,98264.27
2018-09-12T07:52:25.400Z,98255.03
2018-09-12T07:54:54.371Z,98256.84
2018-09-12T07:57:23.607Z,98253.98
2018-09-12T07:59:52.710Z,98260.27
2018-09-12T08:02:21.857Z,98263.77
2018-09-12T08:04:50.845Z,98261.27
2018-09-12T08:07:19.939Z,98261.69
2018-09-12T08:09:49.020Z,98257.22
2018-09-12T08:12:18.165Z,98253.27
2018-09-12T08:14:47.286Z,98253.59
2018-09-12T08:17:16.956Z,98250.61
2018-09-12T08:19:46.126Z,98242.99
2018-09-12T08:22:15.496Z,98249.66
2018-09-12T08:24:44.450Z,98238.84
2018-09-12T08:27:13.852Z,98237.63
2018-09-12T08:29:42.864Z,98238.14
2018-09-12T08:32:11.953Z,98231.70
2018-09-12T08:34:41.103Z,98240.27
2018-09-12T08:37:10.150Z,98245.15
2018-09-12T08:39:39.211Z,98244.51
2018-09-12T08:42:08.401Z,98235.92
2018-09-12T08:44:37.435Z,98231.73
2018-09-12T08:47:06.640Z,98228.52
2018-09-12T08:49:35.785Z,98226.24
2018-09-12T08:52:04.757Z,98221.12
2018-09-12T08:54:33.825Z,98231.55
2018-09-12T08:57:05.714Z,98228.05
2018-09-12T08:59:34.736Z,98232.98
2018-09-12T09:02:03.732Z,98226.02
2018-09-12T09:04:35.466Z,98226.14
2018-09-12T09:07:04.615Z,98215.77
2018-09-12T09:09:33.617Z,98227.24
2018-09-12T09:12:02.617Z,98217.86
2018-09-12T09:14:31.581Z,98221.27
2018-09-12T09:17:00.575Z,98213.94
2018-09-12T09:19:29.681Z,98218.52
2018-09-12T09:24:10.441Z,98219.56
2018-09-12T09:26:39.448Z,98210.61
2018-09-12T09:29:08.419Z,98209.36
2018-09-12T09:31:37.434Z,98212.84
2018-09-12T09:34:06.561Z,98204.32
2018-09-12T09:36:35.536Z,98211.27
2018-09-12T09:39:06.365Z,98202.30
2018-09-12T09:41:35.380Z,98207.09
2018-09-12T09:44:04.418Z,98210.55
2018-09-12T09:46:33.613Z,98204.34
2018-09-12T09:49:03.369Z,98189.60
2018-09-12T09:51:32.431Z,98190.19
2018-09-12T09:54:01.499Z,98190.08
2018-09-12T09:56:34.332Z,98187.58
2018-09-12T09:59:03.407Z,98183.28
2018-09-12T10:01:37.431Z,98181.80
2018-09-12T10:04:11.512Z,98178.73
2018-09-12T10:06:45.805Z,98183.12
2018-09-12T10:09:19.800Z,98176.91
2018-09-12T10:11:49.008Z,98173.41
2018-09-12T10:18:00.730Z,98171.95
2018-09-12T10:23:51.293Z,98164.00
2018-09-12T10:26:20.261Z,98165.59
2018-09-12T10:28:49.318Z,98164.13
2018-09-12T10:31:18.362Z,98161.78
2018-09-12T10:33:47.379Z,98159.41
2018-09-12T10:36:16.649Z,98157.27
2018-09-12T10:38:45.677Z,98153.98
2018-09-12T10:41:14.866Z,98159.70
2018-09-12T10:43:43.857Z,98157.03
2018-09-12T10:46:12.924Z,98158.59
2018-09-12T10:48:41.951Z,98163.98
2018-09-12T10:51:10.958Z,98155.87
2018-09-12T10:53:40.311Z,98149.61
2018-09-12T10:56:09.416Z,98146.94
2018-09-12T10:58:38.328Z,98145.51
2018-09-12T11:01:07.569Z,98141.02
2018-09-12T11:03:36.540Z,98141.28
2018-09-12T11:06:05.583Z,98131.59
2018-09-12T11:08:34.609Z,98127.14
2018-09-12T11:11:03.597Z,98122.34
2018-09-12T11:13:32.800Z,98123.95
2018-09-12T11:16:01.862Z,98120.27
2018-09-12T11:18:30.891Z,98116.97
2018-09-12T11:20:59.912Z,98110.28
2018-09-12T11:23:32.897Z,98109.09
2018-09-12T11:26:01.957Z,98104.30
2018-09-12T11:28:30.918Z,98104.95
2018-09-12T11:30:59.993Z,98103.05
2018-09-12T11:33:28.998Z,98100.30
2018-09-12T11:35:58.009Z,98100.79
2018-09-12T11:38:27.076Z,98095.52
2018-09-12T11:40:56.141Z,98088.55
2018-09-12T11:43:25.085Z,98090.36
2018-09-12T11:45:54.081Z,98082.70
2018-09-12T11:48:23.207Z,98080.52
2018-09-12T11:50:52.225Z,98080.56
2018-09-12T11:53:21.363Z,98080.87
2018-09-12T11:55:50.364Z,98081.22
2018-09-12T11:58:19.330Z,98077.22
2018-09-12T12:00:48.368Z,98071.28
2018-09-12T12:03:17.826Z,98070.90
2018-09-12T12:05:46.786Z,98071.94
2018-09-12T12:08:16.209Z,98067.59
2018-09-12T12:10:45.170Z,98071.45
2018-09-12T12:13:14.568Z,98064.09
2018-09-12T12:15:43.629Z,98065.11
2018-09-12T12:18:12.652Z,98063.37
2018-09-12T12:20:41.606Z,98061.90
2018-09-12T12:23:10.690Z,98062.25
2018-09-12T12:25:39.681Z,98063.76
2018-09-12T12:28:08.698Z,98065.20
2018-09-12T12:30:37.696Z,98055.35
2018-09-12T12:33:07.077Z,98045.42
2018-09-12T12:35:36.092Z,98046.69
2018-09-12T12:38:05.209Z,98034.59
2018-09-12T12:40:34.233Z,98036.11
2018-09-12T12:43:06.218Z,98034.23
2018-09-12T12:45:35.276Z,98026.91
2018-09-12T12:48:04.289Z,98023.48
2018-09-12T12:50:33.311Z,98019.06
2018-09-12T12:53:02.395Z,98016.44
2018-09-12T12:55:31.449Z,98006.19
2018-09-12T12:58:00.461Z,98000.40
2018-09-12T13:00:29.494Z,98002.11
2018-09-12T13:02:58.423Z,97994.39
2018-09-12T13:05:27.426Z,97997.71
2018-09-12T13:07:56.380Z,97989.29
2018-09-12T13:10:25.355Z,97990.33
2018-09-12T13:12:54.381Z,97984.78
2018-09-12T13:15:23.359Z,97981.86
2018-09-12T13:17:52.332Z,97982.16
2018-09-12T13:20:21.400Z,97981.98
2018-09-12T13:22:50.344Z,97983.77
2018-09-12T13:25:19.406Z,97976.84
2018-09-12T13:27:48.493Z,97977.54
2018-09-12T13:30:17.734Z,97979.30
2018-09-12T13:32:46.689Z,97974.13
2018-09-12T13:35:16.361Z,97971.54
2018-09-12T13:37:45.296Z,97964.12
2018-09-12T13:40:14.688Z,97964.77
2018-09-12T13:42:43.664Z,97957.98
2018-09-12T13:45:12.885Z,97961.32
2018-09-12T13:47:42.358Z,97953.53
2018-09-12T13:50:11.595Z,97958.44
2018-09-12T13:52:40.601Z,97951.31
2018-09-12T13:55:09.701Z,97948.23
2018-09-12T13:57:38.701Z,97944.84
2018-09-12T14:00:08.116Z,97943.41
2018-09-12T14:02:37.192Z,97938.27
2018-09-12T14:05:06.411Z,97934.53
2018-09-12T14:07:35.746Z,97927.91
2018-09-12T14:10:05.428Z,97928.83
2018-09-12T14:12:34.522Z,97931.95
2018-09-12T14:15:03.674Z,97921.77
2018-09-12T14:17:32.732Z,97925.59
2018-09-12T14:20:01.847Z,97911.09
2018-09-12T14:22:30.849Z,97908.06
2018-09-12T14:24:59.879Z,97903.16
2018-09-12T14:27:28.842Z,97897.22
2018-09-12T14:29:58.081Z,97895.70
2018-09-12T14:32:27.115Z,97894.81
2018-09-12T14:34:56.119Z,97893.86
2018-09-12T14:37:25.221Z,97895.01
2018-09-12T14:39:54.243Z,97898.23
2018-09-12T14:42:23.356Z,97894.94
2018-09-12T14:44:52.379Z,97892.75
2018-09-12T14:47:21.561Z,97896.73
2018-09-12T14:49:50.617Z,97891.59
2018-09-12T14:52:19.579Z,97887.84
2018-09-12T14:54:48.616Z,97885.56
2018-09-12T14:57:17.917Z,97882.92
2018-09-12T14:59:46.932Z,97884.86
2018-09-12T15:02:16.351Z,97879.45
2018-09-12T15:04:45.452Z,97875.63
2018-09-12T15:07:15.004Z,97868.42
2018-09-12T15:09:44.137Z,97864.75
2018-09-12T15:12:15.872Z,97865.89
2018-09-12T15:14:44.841Z,97858.58
2018-09-12T15:17:14.220Z,97857.04
2018-09-12T15:19:43.277Z,97856.01
2018-09-12T15:22:13.133Z,97854.19
2018-09-12T15:24:42.182Z,97851.73
2018-09-12T15:27:11.273Z,97851.22
2018-09-12T15:29:40.241Z,97847.91
2018-09-12T15:32:09.283Z,97842.56
2018-09-12T15:34:38.337Z,97842.84
2018-09-12T15:37:07.415Z,97843.66
2018-09-12T15:39:36.398Z,97839.36
2018-09-12T15:42:05.516Z,97833.56
2018-09-12T15:44:34.513Z,97832.67
2018-09-12T15:47:03.600Z,97830.59
2018-09-12T15:49:32.620Z,97828.66
2018-09-12T15:52:01.627Z,97831.95
2018-09-12T15:54:30.679Z,97821.34
2018-09-12T15:56:59.773Z,97822.42
2018-09-12T15:59:28.841Z,97814.81
2018-09-12T16:01:57.816Z,97816.82
2018-09-12T16:04:34.644Z,97812.08
2018-09-12T16:07:03.863Z,97812.89
2018-09-12T16:09:32.961Z,97806.89
2018-09-12T16:12:02.003Z,97806.40
2018-09-12T16:14:31.085Z,97803.37
2018-09-12T16:17:00.284Z,97788.81
2018-09-12T16:19:29.326Z,97804.06
2018-09-12T16:21:58.315Z,97802.83
2018-09-12T16:24:27.357Z,97800.80
2018-09-12T16:38:26.899Z,97797.72
2018-09-12T16:40:55.986Z,97796.00
2018-09-12T16:43:24.981Z,97789.91
2018-09-12T16:45:54.077Z,97795.00
2018-09-12T16:48:23.056Z,97789.06
2018-09-12T16:50:52.066Z,97782.56
2018-09-12T16:53:22.837Z,97782.84
2018-09-12T16:55:51.847Z,97783.77
2018-09-12T16:58:20.804Z,97789.04
2018-09-12T17:00:52.021Z,97783.50
2018-09-12T17:03:22.106Z,97789.20
2018-09-12T17:05:51.728Z,97789.45
2018-09-12T17:08:21.727Z,97789.69
2018-09-12T17:10:50.791Z,97785.30
2018-09-12T17:13:41.574Z,97777.22
2018-09-12T17:16:10.577Z,97787.47
2018-09-12T17:18:40.329Z,97795.72
2018-09-12T17:21:09.440Z,97797.10
2018-09-12T17:23:38.589Z,97799.98
2018-09-12T17:26:08.753Z,97797.13
2018-09-12T17:28:37.846Z,97792.03
2018-09-12T17:31:06.878Z,97800.66
2018-09-12T17:33:36.008Z,97799.02
2018-09-12T17:36:05.108Z,97800.33
2018-09-12T17:38:34.088Z,97809.63
2018-09-12T17:41:03.229Z,97810.80
2018-09-12T17:43:32.330Z,97804.25
2018-09-12T17:46:01.448Z,97810.36
2018-09-12T17:48:30.656Z,97798.01
2018-09-12T17:50:59.968Z,97794.71
2018-09-12T17:53:29.736Z,97799.89
2018-09-12T17:56:14.511Z,97798.31
2018-09-12T18:05:22.775Z,97801.33
2018-09-12T18:07:51.963Z,97803.20
2018-09-12T18:10:20.958Z,97797.27
2018-09-12T18:12:49.973Z,97789.19
2018-09-12T18:15:19.032Z,97795.28
2018-09-12T18:17:48.137Z,97802.75
2018-09-12T18:20:17.540Z,97805.77
2018-09-12T18:22:46.644Z,97809.69
2018-09-12T18:25:16.009Z,97806.72
2018-09-12T18:27:45.073Z,97805.41
2018-09-12T18:30:15.417Z,97803.45
2018-09-12T18:32:44.469Z,97811.13
2018-09-12T18:35:18.379Z,97816.06
2018-09-12T18:37:47.605Z,97812.59
2018-09-12T18:40:17.255Z,97814.13
2018-09-12T18:42:46.462Z,97814.63
2018-09-12T18:45:16.134Z,97812.21
2018-09-12T18:47:45.286Z,97807.20
2018-09-12T18:50:14.842Z,97808.98
2018-09-12T18:52:43.887Z,97802.89
2018-09-12T18:55:12.931Z,97803.69
2018-09-12T18:57:42.114Z,97795.75
2018-09-12T19:00:11.261Z,97794.38
2018-09-12T19:02:40.424Z,97791.80
2018-09-12T19:05:10.766Z,97790.95
2018-09-12T19:07:39.843Z,97791.30
2018-09-12T19:10:09.710Z,97793.16
2018-09-12T19:12:41.480Z,97798.44
2018-09-12T19:15:10.611Z,97798.99
2018-09-12T19:17:39.833Z,97805.38
2018-09-12T19:20:09.016Z,97802.73
2018-09-12T19:22:38.153Z,97792.44
2018-09-12T19:25:07.343Z,97793.09
2018-09-12T19:27:36.528Z,97783.92
2018-09-12T19:30:05.757Z,97788.31
2018-09-12T19:32:35.306Z,97799.06
2018-09-12T19:35:04.578Z,97798.27
2018-09-12T19:37:34.084Z,97798.27
2018-09-12T19:40:03.151Z,97798.27
2018-09-12T19:42:32.510Z,97798.97
2018-09-12T19:45:01.558Z,97795.55
2018-09-12T19:47:30.577Z,97799.21
2018-09-12T19:49:59.686Z,97796.46
2018-09-12T19:52:28.758Z,97800.57
2018-09-12T19:54:57.807Z,97804.06
2018-09-12T19:57:26.871Z,97803.51
2018-09-12T19:59:55.906Z,97808.06
2018-09-12T20:02:33.840Z,97805.05
2018-09-12T20:05:03.014Z,97810.73
2018-09-12T20:07:32.831Z,97808.39
2018-09-12T20:10:01.929Z,97811.22
2018-09-12T20:12:30.933Z,97814.30
2018-09-12T20:14:59.992Z,97810.83
2018-09-12T20:17:30.258Z,97806.36
2018-09-12T20:19:59.545Z,97809.34
2018-09-12T20:22:28.708Z,97802.23
2018-09-12T20:24:57.879Z,97803.45
2018-09-12T20:27:26.932Z,97796.56
2018-09-12T20:29:55.986Z,97803.03
2018-09-12T20:32:25.009Z,97807.64
2018-09-12T20:34:54.095Z,97801.32
2018-09-12T20:37:23.216Z,97800.53
2018-09-12T20:39:52.252Z,97800.75
2018-09-12T20:42:34.798Z,97802.14
2018-09-12T20:55:05.134Z,97789.30
2018-09-12T20:57:34.187Z,97789.16
2018-09-12T21:00:03.186Z,97787.08
2018-09-12T21:02:32.303Z,97779.22
2018-09-12T21:05:01.348Z,97772.66
2018-09-12T21:07:30.428Z,97767.09
2018-09-12T21:09:59.450Z,97757.77
2018-09-12T21:12:28.520Z,97759.06
2018-09-12T21:14:57.589Z,97761.31
2018-09-12T21:17:26.630Z,97763.89
2018-09-12T21:19:55.730Z,97756.87
2018-09-12T21:22:24.826Z,97763.27
2018-09-12T21:24:53.828Z,97761.02
2018-09-12T21:27:22.856Z,97763.24
2018-09-12T21:29:51.940Z,97757.11
2018-09-12T21:32:20.953Z,97752.23
2018-09-12T21:34:50.011Z,97743.93
2018-09-12T21:37:19.001Z,97758.63
2018-09-12T21:39:48.104Z,97765.22
2018-09-12T21:42:17.756Z,97768.24
2018-09-12T21:44:46.779Z,97766.45
2018-09-12T21:47:16.613Z,97760.67
2018-09-12T21:49:45.745Z,97762.81
2018-09-12T21:52:15.561Z,97753.52
2018-09-12T21:54:44.592Z,97753.21
2018-09-12T21:57:13.625Z,97760.30
2018-09-12T21:59:42.817Z,97764.50
2018-09-12T22:02:12.017Z,97767.95
2018-09-12T22:04:41.163Z,97766.46
2018-09-12T22:07:10.212Z,97762.98
2018-09-12T22:09:39.386Z,97753.88
2018-09-12T22:12:08.569Z,97752.39
2018-09-12T22:14:37.713Z,97753.11
2018-09-12T22:17:06.872Z,97747.13
2018-09-12T22:19:36.124Z,97755.47
2018-09-12T22:22:05.173Z,97745.13
2018-09-12T22:24:34.268Z,97749.04
2018-09-12T22:27:03.472Z,97739.61
2018-09-12T22:29:32.670Z,97740.23
2018-09-12T22:32:02.060Z,97735.02
2018-09-12T22:34:31.263Z,97727.89
2018-09-12T22:37:00.402Z,97718.19
2018-09-12T22:39:29.609Z,97724.20
2018-09-12T22:41:59.288Z,97725.66
2018-09-12T22:44:45.076Z,97737.17
2018-09-12T22:47:14.946Z,97733.11
2018-09-12T22:49:44.071Z,97731.05
2018-09-12T22:52:13.104Z,97726.10
2018-09-12T22:54:42.333Z,97718.50
2018-09-12T22:57:11.323Z,97718.22
2018-09-12T22:59:40.464Z,97712.06
2018-09-12T23:02:09.616Z,97716.97
2018-09-12T23:04:38.601Z,97711.22
2018-09-12T23:07:07.869Z,97711.62
2018-09-12T23:09:36.977Z,97709.85
2018-09-12T23:12:06.120Z,97703.20
2018-09-12T23:14:35.189Z,97704.39
2018-09-12T23:17:07.418Z,97703.86
2018-09-12T23:19:36.607Z,97696.06
2018-09-12T23:22:05.782Z,97698.83
2018-09-12T23:24:34.819Z,97703.25
2018-09-12T23:27:03.854Z,97699.03
2018-09-12T23:29:33.201Z,97698.83
2018-09-12T23:32:02.281Z,97700.61
2018-09-12T23:34:33.695Z,97701.37
2018-09-12T23:37:02.788Z,97702.80
2018-09-12T23:39:31.910Z,97706.73
2018-09-12T23:42:01.137Z,97700.23
2018-09-12T23:44:33.405Z,97702.27
2018-09-12T23:47:02.522Z,97687.94
2018-09-12T23:49:31.629Z,97694.28
2018-09-12T23:52:00.803Z,97693.44
2018-09-12T23:54:29.976Z,97689.60
2018-09-12T23:56:59.077Z,97683.36
2018-09-12T23:59:28.181Z,97680.17
